Time;durP1;ratioP1;P1;durP2;ratioP2;P2;SDS_P1;SDS_P2;PMS_P1;PMS_P2;Temp;Humidity;BMP_temperature;BMP_pressure;BME280_temperature;BME280_humidity;BME280_pressure;Samples;Min_cycle;Max_cycle;Signal;HPM_P1;HPM_P2
2022/06/12 00:00:44;;;;;;;4.78;2.00;;;;;;;19.49;67.47;100644.09;5529451;32;34603;-67
2022/06/12 00:03:48;;;;;;;3.17;2.10;;;;;;;19.58;64.11;100644.63;5529445;32;34148;-67
2022/06/12 00:06:52;;;;;;;3.03;2.00;;;;;;;19.66;63.47;100647.03;5529804;32;35197;-66
2022/06/12 00:09:55;;;;;;;2.42;1.80;;;;;;;19.73;62.67;100639.75;5529387;32;34439;-67
2022/06/12 00:12:58;;;;;;;3.95;1.75;;;;;;;19.76;62.68;100650.87;5529875;32;33858;-67
2022/06/12 00:16:02;;;;;;;2.47;1.80;;;;;;;19.78;61.87;100638.03;5532185;32;35261;-67
2022/06/12 00:19:05;;;;;;;3.53;1.90;;;;;;;19.72;62.10;100638.09;5532174;32;33912;-67
2022/06/12 00:22:07;;;;;;;2.12;1.77;;;;;;;19.74;62.26;100639.53;5532200;32;33946;-67
2022/06/12 00:25:14;;;;;;;3.53;1.85;;;;;;;19.63;63.89;100642.94;5532190;32;34585;-67
2022/06/12 00:28:16;;;;;;;2.40;1.73;;;;;;;19.50;64.54;100640.37;5532400;32;34664;-67
2022/06/12 00:31:19;;;;;;;3.08;1.60;;;;;;;19.37;65.29;100633.16;5532093;32;33874;-67
2022/06/12 00:34:26;;;;;;;3.42;1.77;;;;;;;19.37;64.31;100633.16;5532399;32;34085;-67
2022/06/12 00:37:29;;;;;;;2.97;1.90;;;;;;;19.33;64.14;100625.75;5532028;32;34074;-67
2022/06/12 00:40:31;;;;;;;4.70;2.20;;;;;;;19.35;64.41;100623.69;5532128;32;34075;-67
2022/06/12 00:43:34;;;;;;;7.75;1.90;;;;;;;19.49;64.37;100627.94;5531979;32;34662;-67
2022/06/12 00:46:51;;;;;;;2.67;1.87;;;;;;;19.52;64.40;100627.50;5531939;32;34628;-67
2022/06/12 00:50:01;;;;;;;2.80;1.90;;;;;;;19.51;64.49;100618.59;5531890;32;34091;-67
2022/06/12 00:53:06;;;;;;;4.70;2.10;;;;;;;19.45;64.93;100622.19;5531150;32;34077;-67
2022/06/12 00:56:17;;;;;;;6.70;2.17;;;;;;;19.38;65.46;100623.22;5531868;32;33987;-67
2022/06/12 00:59:35;;;;;;;4.65;2.00;;;;;;;19.39;65.98;100620.34;5531854;32;33889;-67
2022/06/12 01:02:38;;;;;;;5.15;2.00;;;;;;;19.38;66.94;100610.63;5531817;32;34092;-67
2022/06/12 01:09:15;;;;;;;2.50;1.90;;;;;;;19.31;67.49;100615.25;5531133;32;33577;-67
2022/06/12 01:12:22;;;;;;;2.40;2.05;;;;;;;19.19;68.47;100602.69;5531974;32;35261;-67
2022/06/12 01:15:36;;;;;;;3.50;2.10;;;;;;;19.19;68.87;100603.53;5531701;32;33864;-67
2022/06/12 01:18:46;;;;;;;3.25;2.10;;;;;;;19.19;68.78;100600.84;5531709;32;33957;-67
2022/06/12 01:22:00;;;;;;;3.17;2.33;;;;;;;19.14;69.15;100606.03;5532015;32;34137;-67
2022/06/12 01:25:33;;;;;;;5.62;2.25;;;;;;;19.02;69.88;100597.88;5531006;32;34425;-67
2022/06/12 01:28:56;;;;;;;3.00;2.08;;;;;;;19.09;69.24;100605.88;5531524;32;33992;-67
2022/06/12 01:32:20;;;;;;;2.03;1.83;;;;;;;18.98;70.67;100610.06;5531682;32;34087;-67
2022/06/12 01:35:58;;;;;;;2.40;2.08;;;;;;;18.88;69.24;100604.34;5531940;32;35214;-67
2022/06/12 01:39:01;;;;;;;7.53;2.20;;;;;;;18.79;68.63;100600.28;5508030;32;34047;-67
2022/06/12 01:42:18;;;;;;;2.12;1.92;;;;;;;18.84;67.55;100599.63;5531392;32;34662;-67
2022/06/12 01:45:31;;;;;;;4.75;2.20;;;;;;;18.82;67.07;100597.16;5531456;32;33963;-67
2022/06/12 01:48:55;;;;;;;2.75;1.90;;;;;;;18.90;65.75;100593.37;5531662;32;34423;-67
2022/06/12 01:52:12;;;;;;;2.47;2.12;;;;;;;18.98;66.09;100587.72;5531366;32;34157;-67
2022/06/12 01:55:31;;;;;;;3.47;1.80;;;;;;;18.83;66.07;100596.09;5531382;32;35168;-67
2022/06/12 01:58:46;;;;;;;3.72;2.00;;;;;;;18.90;65.51;100596.06;5531315;32;34770;-67
2022/06/12 02:01:58;;;;;;;2.50;1.85;;;;;;;18.84;65.22;100597.75;5531230;32;34688;-67
2022/06/12 02:05:28;;;;;;;2.53;1.70;;;;;;;18.88;64.69;100582.84;5531118;32;34678;-67
2022/06/12 02:08:40;;;;;;;2.10;1.70;;;;;;;18.86;64.60;100593.00;5531487;32;34617;-67
2022/06/12 02:15:23;;;;;;;2.50;1.70;;;;;;;18.87;65.03;100594.66;5531219;32;34598;-66
2022/06/12 02:18:41;;;;;;;4.62;2.20;;;;;;;18.77;65.79;100593.47;5531193;32;33926;-66
2022/06/12 02:21:50;;;;;;;2.05;1.80;;;;;;;18.78;66.31;100593.28;5531106;32;34562;-67
2022/06/12 02:25:06;;;;;;;3.53;2.00;;;;;;;18.72;66.32;100594.13;5531092;32;34013;-67
2022/06/12 02:28:24;;;;;;;2.70;1.83;;;;;;;18.57;67.40;100591.72;5531089;32;34020;-67
2022/06/12 02:31:36;;;;;;;3.83;2.03;;;;;;;18.52;66.96;100596.87;5530911;32;34145;-67
2022/06/12 02:34:42;;;;;;;2.12;1.83;;;;;;;18.45;67.23;100600.63;5530986;32;34749;-67
2022/06/12 02:37:54;;;;;;;3.05;1.90;;;;;;;18.43;67.87;100602.72;5530944;32;33850;-67
2022/06/12 02:41:06;;;;;;;4.10;1.98;;;;;;;18.39;68.76;100599.63;5530875;32;33916;-67
2022/06/12 02:44:16;;;;;;;3.20;2.10;;;;;;;18.15;69.41;100603.81;5530909;32;34155;-67
2022/06/12 02:47:22;;;;;;;;;;;;;;;18.19;69.68;100609.63;5531395;32;34008;-67
2022/06/12 02:50:31;;;;;;;4.32;1.87;;;;;;;18.23;69.88;100603.63;5529688;32;35188;-66
2022/06/12 02:54:08;;;;;;;5.05;2.20;;;;;;;18.16;70.11;100615.41;5531119;32;34407;-67
2022/06/12 02:57:34;;;;;;;5.40;2.22;;;;;;;18.04;70.00;100604.50;5528375;32;34585;-68
2022/06/12 03:01:05;;;;;;;3.20;1.85;;;;;;;17.95;70.11;100610.31;5530597;32;34639;-67
2022/06/12 03:04:16;;;;;;;2.70;1.75;;;;;;;17.89;70.69;100611.16;5525565;32;35070;-67
2022/06/12 03:07:19;;;;;;;3.85;1.90;;;;;;;17.82;71.95;100611.16;5529982;32;31736;-67
2022/06/12 03:10:27;;;;;;;2.67;1.60;;;;;;;17.76;70.86;100615.50;5530630;32;34563;-67
2022/06/12 03:13:32;;;;;;;2.70;1.83;;;;;;;17.72;71.27;100621.47;5530489;32;33904;-67
2022/06/12 03:16:37;;;;;;;2.72;1.70;;;;;;;17.66;71.43;100615.12;5530321;32;34725;-67
2022/06/12 03:19:47;;;;;;;2.67;1.73;;;;;;;17.64;70.92;100613.66;5530375;32;33855;-67
2022/06/12 03:22:56;;;;;;;;;;;;;;;17.69;71.45;100612.00;5530614;32;33901;-67
2022/06/12 03:26:01;;;;;;;5.35;1.80;;;;;;;17.74;71.23;100617.56;5530256;32;35072;-67
2022/06/12 03:29:10;;;;;;;2.45;1.73;;;;;;;17.85;71.30;100620.66;5530470;32;34713;-67
2022/06/12 03:32:35;;;;;;;2.70;1.65;;;;;;;18.10;69.91;100616.25;5530144;32;34162;-67
2022/06/12 03:36:04;;;;;;;2.42;1.92;;;;;;;18.25;68.99;100611.44;5530075;32;34684;-66
2022/06/12 03:39:34;;;;;;;3.50;1.98;;;;;;;18.52;68.91;100617.53;5530227;32;33948;-66
2022/06/12 03:42:52;;;;;;;3.28;1.77;;;;;;;18.54;69.43;100619.00;5530026;32;34465;-66
2022/06/12 03:46:01;;;;;;;3.03;1.75;;;;;;;18.46;69.80;100626.44;5529829;32;34372;-68
2022/06/12 03:49:13;;;;;;;3.22;1.90;;;;;;;18.43;68.94;100627.72;5530835;32;34112;-67
2022/06/12 03:52:25;;;;;;;3.58;2.22;;;;;;;18.47;69.92;100625.41;5532433;32;34682;-66
2022/06/12 03:59:15;;;;;;;4.72;1.87;;;;;;;18.50;68.26;100635.72;5532406;32;34159;-66
2022/06/12 04:02:22;;;;;;;3.78;1.87;;;;;;;18.53;68.28;100638.00;5532658;32;34037;-66
2022/06/12 04:05:32;;;;;;;4.30;1.50;;;;;;;18.72;67.01;100637.13;5532341;32;34352;-66
2022/06/12 04:08:45;;;;;;;2.72;2.12;;;;;;;18.72;67.22;100636.28;5532171;32;34016;-67
2022/06/12 04:11:57;;;;;;;3.30;2.00;;;;;;;18.70;66.58;100641.03;5532378;32;34009;-67
2022/06/12 04:15:17;;;;;;;2.10;1.50;;;;;;;18.79;68.17;100645.12;5532163;32;34006;-67
2022/06/12 04:18:20;;;;;;;2.60;1.58;;;;;;;18.82;66.74;100642.03;5532216;32;34268;-67
2022/06/12 04:21:33;;;;;;;2.78;1.70;;;;;;;18.92;66.61;100639.72;5532436;32;34120;-67
2022/06/12 04:24:39;;;;;;;4.57;1.60;;;;;;;18.96;65.94;100652.50;5532206;32;34642;-66
2022/06/12 04:27:43;;;;;;;4.87;1.75;;;;;;;19.14;66.01;100648.25;5532410;32;34338;-67
2022/06/12 04:30:46;;;;;;;2.67;1.70;;;;;;;18.98;66.57;100654.94;5532117;32;34031;-67
2022/06/12 04:33:55;;;;;;;1.70;1.40;;;;;;;18.99;66.90;100645.84;5532184;32;33878;-66
2022/06/12 04:37:08;;;;;;;4.70;1.70;;;;;;;18.97;66.48;100647.94;5532050;32;34012;-67
2022/06/12 04:40:23;;;;;;;2.17;1.62;;;;;;;19.17;66.18;100655.91;5531852;32;35198;-65
2022/06/12 04:43:26;;;;;;;5.62;2.55;;;;;;;19.19;66.48;100670.75;5530987;32;33063;-67
2022/06/12 04:46:28;;;;;;;3.15;1.80;;;;;;;19.06;66.09;100660.91;5532275;32;35328;-67
2022/06/12 04:49:35;;;;;;;3.12;1.80;;;;;;;19.07;66.40;100657.16;5531193;32;32529;-67
2022/06/12 04:52:37;;;;;;;1.77;1.42;;;;;;;19.00;66.01;100652.88;5532024;32;34150;-66
2022/06/12 04:55:40;;;;;;;3.95;1.62;;;;;;;19.12;65.94;100663.78;5531887;32;34585;-65
2022/06/12 04:58:43;;;;;;;2.40;1.50;;;;;;;19.06;65.77;100660.91;5531709;32;33928;-66
2022/06/12 05:01:48;;;;;;;2.00;1.42;;;;;;;19.16;65.71;100660.44;5531683;32;34698;-66
2022/06/12 05:04:52;;;;;;;1.60;1.42;;;;;;;19.34;66.24;100657.00;5532183;32;34524;-66
2022/06/12 05:07:55;;;;;;;1.67;1.40;;;;;;;19.53;64.22;100656.06;5531749;32;33963;-66
2022/06/12 05:10:57;;;;;;;4.70;1.95;;;;;;;19.50;64.38;100648.44;5532111;32;34739;-68
2022/06/12 05:14:01;;;;;;;4.72;1.80;;;;;;;19.56;63.68;100652.91;5531714;32;34046;-68
2022/06/12 05:17:12;;;;;;;4.18;1.90;;;;;;;19.43;64.06;100651.13;5532079;32;33983;-68
2022/06/12 05:20:22;;;;;;;3.15;1.65;;;;;;;19.54;64.07;100652.34;5531759;32;34076;-68
2022/06/12 05:23:24;;;;;;;3.00;1.60;;;;;;;19.56;64.29;100663.69;5531779;32;34215;-68
2022/06/12 05:26:30;;;;;;;2.75;1.80;;;;;;;19.75;64.09;100662.69;5531645;32;34612;-66
2022/06/12 05:29:37;;;;;;;3.17;1.55;;;;;;;20.06;63.12;100663.66;5531408;32;34597;-67
2022/06/12 05:32:40;;;;;;;2.80;1.52;;;;;;;20.10;63.72;100662.16;5530599;32;33964;-67
2022/06/12 05:35:43;;;;;;;3.55;2.00;;;;;;;20.27;63.38;100671.31;5530916;32;34006;-66
2022/06/12 05:38:46;;;;;;;4.25;1.55;;;;;;;20.37;62.89;100672.47;5531396;32;33961;-67
2022/06/12 05:41:48;;;;;;;2.35;1.50;;;;;;;20.34;63.30;100667.50;5531577;32;34017;-66
2022/06/12 05:44:52;;;;;;;2.67;1.77;;;;;;;20.50;62.99;100681.44;5531487;32;34056;-67
2022/06/12 05:47:59;;;;;;;2.65;1.67;;;;;;;20.60;62.26;100679.88;5531283;32;34628;-68
2022/06/12 05:51:03;;;;;;;2.85;1.60;;;;;;;20.30;62.37;100674.41;5530680;32;33948;-65
2022/06/12 05:54:06;;;;;;;3.20;2.00;;;;;;;20.42;63.01;100685.28;5531215;32;34212;-66
2022/06/12 05:57:08;;;;;;;2.50;1.58;;;;;;;20.56;62.42;100684.06;5531180;32;33991;-67
2022/06/12 06:00:19;;;;;;;3.97;1.75;;;;;;;20.64;62.00;100685.63;5531526;32;34344;-67
2022/06/12 06:03:22;;;;;;;5.70;1.55;;;;;;;20.76;60.33;100686.53;5531135;32;34067;-67
2022/06/12 06:06:30;;;;;;;3.35;1.58;;;;;;;20.79;60.33;100691.44;5531646;32;33945;-68
2022/06/12 06:09:36;;;;;;;2.72;1.60;;;;;;;20.75;59.99;100695.66;5531074;32;34011;-69
2022/06/12 06:12:39;;;;;;;3.17;1.83;;;;;;;20.74;60.05;100702.91;5530607;32;34138;-67
2022/06/12 06:15:43;;;;;;;5.10;1.80;;;;;;;20.92;59.85;100701.22;5531136;32;33895;-66
2022/06/12 06:18:46;;;;;;;4.03;1.65;;;;;;;21.12;59.88;100704.50;5531158;32;35250;-67
2022/06/12 06:21:49;;;;;;;4.20;1.80;;;;;;;21.35;58.37;100695.72;5531126;32;34026;-68
2022/06/12 06:24:52;;;;;;;6.78;1.80;;;;;;;21.33;58.41;100682.44;5530891;32;34744;-67
2022/06/12 06:27:56;;;;;;;2.42;1.65;;;;;;;21.32;58.11;100701.53;5530234;32;33085;-67
2022/06/12 06:30:59;;;;;;;2.58;1.55;;;;;;;21.48;58.08;100690.91;5531031;32;33957;-67
2022/06/12 06:34:02;;;;;;;2.05;1.42;;;;;;;21.74;59.45;100686.94;5531130;32;34621;-67
2022/06/12 06:37:08;;;;;;;2.62;1.83;;;;;;;21.81;56.36;100697.66;5530378;32;34240;-68
2022/06/12 06:40:13;;;;;;;2.97;1.80;;;;;;;21.82;56.07;100696.59;5530853;32;33971;-67
2022/06/12 06:43:16;;;;;;;2.67;2.00;;;;;;;21.90;56.54;100693.53;5530950;32;33994;-67
2022/06/12 06:46:18;;;;;;;4.65;1.77;;;;;;;21.86;56.21;100701.31;5530831;32;34029;-67
2022/06/12 06:49:21;;;;;;;2.70;1.70;;;;;;;21.80;56.87;100696.81;5530752;32;34116;-68
2022/06/12 06:52:24;;;;;;;3.20;1.80;;;;;;;21.90;56.75;100698.94;5530612;32;34619;-67
2022/06/12 06:55:29;;;;;;;3.10;1.60;;;;;;;21.98;55.73;100702.16;5530499;32;34152;-67
2022/06/12 06:58:32;;;;;;;3.78;1.70;;;;;;;22.12;55.79;100701.94;5529811;32;33889;-67
2022/06/12 07:01:35;;;;;;;3.47;1.50;;;;;;;22.21;55.65;100701.34;5530656;32;34968;-68
2022/06/12 07:04:39;;;;;;;2.58;1.52;;;;;;;22.51;55.11;100695.78;5529743;32;32282;-68
2022/06/12 07:07:41;;;;;;;2.40;1.75;;;;;;;22.86;52.98;100685.69;5530565;32;34057;-68
2022/06/12 07:10:45;;;;;;;2.70;1.80;;;;;;;23.01;52.86;100692.47;5530588;32;34267;-67
2022/06/12 07:13:48;;;;;;;1.98;1.50;;;;;;;23.42;51.02;100691.34;5530191;32;34617;-67
2022/06/12 07:16:51;;;;;;;2.47;1.70;;;;;;;23.62;52.23;100695.25;5530751;32;34045;-67
2022/06/12 07:19:53;;;;;;;2.05;1.85;;;;;;;23.86;52.18;100692.38;5530355;32;34702;-66
2022/06/12 07:22:56;;;;;;;1.92;1.52;;;;;;;23.82;50.85;100689.31;5530396;32;33995;-67
2022/06/12 07:26:04;;;;;;;2.95;1.70;;;;;;;23.98;51.86;100688.47;5531490;32;33931;-67
2022/06/12 07:29:08;;;;;;;2.90;1.55;;;;;;;23.87;51.39;100686.69;5532496;32;34560;-66
2022/06/12 07:32:11;;;;;;;1.90;1.45;;;;;;;24.08;50.58;100687.81;5532582;32;34007;-68
2022/06/12 07:35:14;;;;;;;2.40;1.50;;;;;;;24.22;49.59;100683.69;5532496;32;34788;-68
2022/06/12 07:38:20;;;;;;;1.87;1.37;;;;;;;24.73;48.66;100674.34;5532411;32;33919;-67
2022/06/12 07:41:23;;;;;;;3.17;1.70;;;;;;;25.59;45.88;100677.97;5532269;32;34173;-68
2022/06/12 07:44:30;;;;;;;2.22;1.50;;;;;;;26.17;44.48;100674.28;5532369;32;34302;-69
2022/06/12 07:47:33;;;;;;;2.28;1.30;;;;;;;26.12;44.70;100678.88;5532429;32;34206;-69
2022/06/12 07:50:37;;;;;;;2.92;1.30;;;;;;;27.41;41.78;100673.38;5532311;32;34682;-68
2022/06/12 07:53:41;;;;;;;2.75;1.55;;;;;;;28.41;40.01;100677.13;5532434;32;34108;-68
2022/06/12 07:56:44;;;;;;;1.67;1.30;;;;;;;28.79;37.92;100674.78;5518691;32;32657;-70
2022/06/12 07:59:47;;;;;;;4.82;1.45;;;;;;;28.92;37.71;100677.72;5532080;32;34055;-69
2022/06/12 08:02:50;;;;;;;2.50;1.30;;;;;;;29.15;36.21;100676.19;5532256;32;34029;-69
2022/06/12 08:05:53;;;;;;;1.90;1.23;;;;;;;28.67;36.33;100674.25;5531635;32;32505;-68
2022/06/12 08:08:57;;;;;;;2.85;1.30;;;;;;;28.85;36.13;100673.69;5532114;32;33909;-68
2022/06/12 08:12:05;;;;;;;;;;;;;;;29.53;36.18;100680.03;5532384;32;34696;-68
2022/06/12 08:15:12;;;;;;;1.10;1.00;;;;;;;27.42;38.07;100675.00;5532113;32;34184;-68
2022/06/12 08:18:17;;;;;;;2.35;1.27;;;;;;;28.25;36.31;100672.78;5530922;32;32460;-68
2022/06/12 08:21:21;;;;;;;1.45;1.00;;;;;;;30.01;34.12;100670.06;5531834;32;34203;-69
2022/06/12 08:24:25;;;;;;;1.45;1.10;;;;;;;30.68;32.96;100668.22;5532070;32;33902;-68
2022/06/12 08:27:27;;;;;;;2.72;1.30;;;;;;;30.79;31.54;100664.19;5531873;32;34295;-69
2022/06/12 08:30:30;;;;;;;2.12;1.20;;;;;;;30.54;33.19;100670.84;5531990;32;34040;-68
2022/06/12 08:33:35;;;;;;;2.55;1.12;;;;;;;31.48;31.03;100660.72;5531786;32;33944;-68
2022/06/12 08:36:39;;;;;;;5.07;1.40;;;;;;;30.18;32.38;100661.41;5518164;32;32612;-68
2022/06/12 08:39:42;;;;;;;3.17;1.20;;;;;;;29.89;33.15;100666.09;5531480;32;34631;-69
2022/06/12 08:42:56;;;;;;;1.67;1.20;;;;;;;30.37;32.41;100651.31;5532210;32;35265;-67
2022/06/12 08:46:15;;;;;;;2.87;1.10;;;;;;;31.09;32.43;100660.25;5531662;32;34037;-68
2022/06/12 08:49:30;;;;;;;2.37;1.10;;;;;;;32.65;29.85;100659.38;5530930;32;33241;-68
2022/06/12 08:52:40;;;;;;;2.17;1.20;;;;;;;31.47;29.59;100659.09;5531024;32;34484;-68
2022/06/12 08:55:57;;;;;;;2.65;1.10;;;;;;;30.42;30.54;100655.91;5531520;32;34005;-69
2022/06/12 08:59:09;;;;;;;1.45;1.12;;;;;;;31.92;29.16;100659.44;5531256;32;35300;-69
2022/06/12 09:02:28;;;;;;;1.50;1.02;;;;;;;31.83;28.41;100664.00;5530295;32;34216;-69
2022/06/12 09:05:44;;;;;;;3.58;1.83;;;;;;;31.47;29.03;100663.75;5531241;32;34769;-68
2022/06/12 09:09:00;;;;;;;2.72;1.10;;;;;;;32.10;29.40;100668.69;5531153;32;34130;-67
2022/06/12 09:12:30;;;;;;;2.45;1.30;;;;;;;33.65;27.37;100665.53;5517888;32;33639;-69
2022/06/12 09:15:49;;;;;;;1.40;1.20;;;;;;;31.28;30.25;100657.47;5530354;32;32862;-68
2022/06/12 09:18:55;;;;;;;2.08;1.27;;;;;;;33.00;27.86;100656.97;5530247;32;32907;-69
2022/06/12 09:22:12;;;;;;;2.70;1.30;;;;;;;31.63;29.42;100650.63;5530960;32;34694;-68
2022/06/12 09:25:15;;;;;;;1.67;1.10;;;;;;;31.20;30.57;100653.50;5531044;32;35186;-68
2022/06/12 09:28:27;;;;;;;2.90;1.40;;;;;;;32.90;28.53;100647.00;5531530;32;34576;-69
2022/06/12 09:32:00;;;;;;;2.45;1.37;;;;;;;34.72;25.51;100650.47;5530817;32;34784;-70
2022/06/12 09:35:05;;;;;;;4.30;1.20;;;;;;;34.72;26.87;100644.16;5531147;32;35033;-69
2022/06/12 09:38:33;;;;;;;1.83;1.08;;;;;;;34.75;27.02;100647.09;5530702;32;33890;-69
2022/06/12 09:41:54;;;;;;;1.90;1.20;;;;;;;33.21;28.41;100640.84;5530982;32;33878;-69
2022/06/12 09:45:12;;;;;;;2.50;1.20;;;;;;;33.96;26.90;100638.88;5531219;32;34668;-69
2022/06/12 09:48:27;;;;;;;;;;;;;;;33.24;28.81;100642.94;5529958;32;34247;-69
2022/06/12 09:51:41;;;;;;;3.92;1.30;;;;;;;34.39;26.54;100627.22;5531122;32;34963;-69
2022/06/12 09:55:06;;;;;;;2.78;1.23;;;;;;;35.46;26.01;100622.75;5530895;32;34394;-68
2022/06/12 09:58:23;;;;;;;2.95;1.30;;;;;;;35.80;25.40;100624.63;5531056;32;33925;-68
2022/06/12 10:01:30;;;;;;;2.60;1.30;;;;;;;34.57;27.04;100626.09;5531184;32;34418;-69
2022/06/12 10:04:44;;;;;;;1.30;1.20;;;;;;;33.30;28.11;100616.94;5531041;32;34147;-68
2022/06/12 10:07:54;;;;;;;2.30;1.25;;;;;;;34.62;26.78;100612.19;5531496;32;33969;-67
2022/06/12 10:11:09;;;;;;;2.50;1.20;;;;;;;34.92;27.25;100615.16;5530046;32;32625;-68
2022/06/12 10:14:27;;;;;;;1.33;1.20;;;;;;;35.20;27.54;100610.94;5530372;32;35174;-69
2022/06/12 10:17:45;;;;;;;2.70;1.20;;;;;;;34.16;27.61;100595.38;5531179;32;34133;-70
2022/06/12 10:20:54;;;;;;;2.03;1.23;;;;;;;33.38;30.25;100607.94;5531530;32;34045;-69
2022/06/12 10:23:58;;;;;;;3.97;1.33;;;;;;;33.63;29.53;100599.84;5530191;32;34742;-68
2022/06/12 10:27:07;;;;;;;2.10;1.40;;;;;;;35.20;27.66;100600.72;5525601;32;147458;-68
2022/06/12 10:30:33;;;;;;;2.55;1.20;;;;;;;35.62;26.14;100592.69;5530889;32;34716;-68
2022/06/12 10:33:41;;;;;;;1.90;1.33;;;;;;;37.15;24.03;100592.09;5530062;32;34148;-67
2022/06/12 10:36:44;;;;;;;1.70;1.17;;;;;;;36.06;24.82;100596.91;5530101;32;33819;-69
2022/06/12 10:40:03;;;;;;;2.33;1.27;;;;;;;36.20;26.37;100594.75;5530796;32;34488;-68
2022/06/12 10:43:21;;;;;;;1.90;1.33;;;;;;;37.27;23.87;100589.37;5530826;32;34397;-68
2022/06/12 10:46:25;;;;;;;3.10;1.30;;;;;;;39.03;22.69;100581.59;5530670;32;33970;-69
2022/06/12 10:49:28;;;;;;;1.67;1.10;;;;;;;37.82;23.25;100583.38;5531084;32;34332;-67
2022/06/12 10:52:32;;;;;;;2.20;1.12;;;;;;;35.46;26.55;100580.53;5530259;32;34115;-68
2022/06/12 10:55:54;;;;;;;2.35;1.33;;;;;;;32.42;30.64;100583.50;5530979;32;34520;-68
2022/06/12 10:59:15;;;;;;;4.65;1.48;;;;;;;33.97;28.99;100577.19;5529894;32;32423;-68
2022/06/12 11:02:49;;;;;;;1.30;1.20;;;;;;;35.10;27.25;100576.19;5530976;32;34064;-67
2022/06/12 11:06:21;;;;;;;2.17;1.30;;;;;;;34.91;27.96;100572.19;5530746;32;33917;-67
2022/06/12 11:09:37;;;;;;;2.28;1.35;;;;;;;37.31;25.41;100578.44;5530792;32;34315;-68
2022/06/12 11:12:52;;;;;;;2.70;1.52;;;;;;;37.08;25.21;100572.50;5530728;32;34170;-68
2022/06/12 11:16:36;;;;;;;3.20;1.23;;;;;;;36.92;25.11;100560.41;5529577;32;33012;-68
2022/06/12 11:19:49;;;;;;;2.05;1.30;;;;;;;37.47;23.82;100562.78;5530417;32;33948;-69
2022/06/12 11:23:16;;;;;;;1.80;1.27;;;;;;;38.28;23.72;100559.13;5530359;32;34060;-68
2022/06/12 11:27:04;;;;;;;5.68;1.40;;;;;;;37.42;23.63;100563.00;5530381;32;34572;-69
2022/06/12 11:30:48;;;;;;;1.33;1.12;;;;;;;37.17;24.47;100564.91;5529311;32;32469;-69
2022/06/12 11:34:06;;;;;;;1.87;1.15;;;;;;;38.31;22.93;100555.66;5439701;32;32687;-69
2022/06/12 11:37:14;;;;;;;2.33;1.25;;;;;;;38.64;22.97;100561.84;5457110;32;34578;-69
2022/06/12 11:40:49;;;;;;;;;;;;;;;37.34;23.88;100556.41;5530281;32;33971;-69
2022/06/12 11:44:06;;;;;;;1.77;1.08;;;;;;;40.43;20.60;100548.66;5496316;32;34357;-68
2022/06/12 11:47:27;;;;;;;3.35;1.20;;;;;;;40.86;20.30;100550.38;5530127;32;33971;-67
2022/06/12 11:50:42;;;;;;;3.20;1.50;;;;;;;40.96;19.29;100561.69;5529908;32;34091;-69
2022/06/12 11:53:47;;;;;;;3.80;1.35;;;;;;;40.72;20.25;100553.66;5529956;32;34690;-68
2022/06/12 11:57:17;;;;;;;3.95;1.35;;;;;;;38.92;21.67;100550.00;5529605;32;34006;-67
2022/06/12 12:01:00;;;;;;;2.30;1.42;;;;;;;40.13;20.52;100542.81;5529589;32;33974;-69
2022/06/12 12:04:29;;;;;;;1.40;1.20;;;;;;;39.94;20.96;100543.56;5529633;32;33958;-67
2022/06/12 12:07:54;;;;;;;1.58;1.20;;;;;;;41.37;19.50;100542.59;5527067;32;34530;-66
2022/06/12 12:11:18;;;;;;;2.30;1.23;;;;;;;41.05;20.29;100533.69;5531459;32;34419;-67
2022/06/12 12:14:27;;;;;;;1.80;1.33;;;;;;;42.04;19.17;100540.94;5531716;32;32448;-69
2022/06/12 12:17:40;;;;;;;1.62;1.42;;;;;;;40.34;20.10;100523.81;5532097;32;34253;-68
2022/06/12 12:20:44;;;;;;;2.53;1.27;;;;;;;40.28;21.01;100516.97;5532182;32;35281;-67
2022/06/12 12:23:51;;;;;;;1.30;1.20;;;;;;;41.98;19.54;100509.00;5532299;32;33955;-68
2022/06/12 12:26:58;;;;;;;2.65;1.45;;;;;;;42.45;18.81;100503.72;5531794;32;34057;-68
2022/06/12 12:30:13;;;;;;;2.25;1.40;;;;;;;40.57;20.34;100508.03;5531859;32;34041;-69
2022/06/12 12:33:18;;;;;;;3.92;1.40;;;;;;;40.11;21.13;100500.66;5532225;32;33986;-67
2022/06/12 12:43:18;;;;;;;2.55;1.33;;;;;;;35.39;27.25;100500.25;5532012;32;34597;-68
2022/06/12 12:46:25;;;;;;;2.00;1.20;;;;;;;37.99;23.48;100493.72;5531285;32;33500;-67
2022/06/12 12:49:33;;;;;;;;;;;;;;;40.72;21.21;100487.69;5532329;32;34184;-67
2022/06/12 12:52:46;;;;;;;1.90;1.25;;;;;;;37.70;23.64;100492.00;5531906;32;34691;-68
2022/06/12 12:56:00;;;;;;;1.65;1.27;;;;;;;37.29;24.70;100475.56;5532332;32;34043;-68
2022/06/12 12:59:07;;;;;;;1.52;1.30;;;;;;;38.42;23.25;100468.09;5531941;32;33935;-69
2022/06/12 13:02:35;;;;;;;1.60;1.10;;;;;;;39.38;22.21;100479.06;5531783;32;35195;-69
2022/06/12 13:05:47;;;;;;;1.40;1.20;;;;;;;40.86;20.57;100478.03;5531660;32;35206;-69
2022/06/12 13:08:59;;;;;;;2.00;1.40;;;;;;;43.17;18.69;100469.03;5531633;32;34441;-68
2022/06/12 13:12:01;;;;;;;1.98;1.20;;;;;;;42.87;19.07;100481.06;5531726;32;32681;-68
2022/06/12 13:15:19;;;;;;;2.05;1.52;;;;;;;43.33;17.02;100475.94;5531525;32;33918;-69
2022/06/12 13:18:25;;;;;;;;;;;;;;;42.70;18.03;100478.88;5532190;32;35156;-68
2022/06/12 13:21:31;;;;;;;2.58;1.27;;;;;;;41.50;19.18;100471.63;5530509;32;34881;-69
2022/06/12 13:24:46;;;;;;;1.65;1.27;;;;;;;40.30;21.08;100462.59;5531594;32;34616;-69
2022/06/12 13:27:57;;;;;;;5.72;1.33;;;;;;;40.65;20.15;100456.16;5531461;32;34446;-68
2022/06/12 13:31:02;;;;;;;1.30;1.10;;;;;;;41.89;19.35;100458.31;5531842;32;34662;-67
2022/06/12 13:34:05;;;;;;;3.20;1.37;;;;;;;43.01;18.35;100460.87;5530812;32;34613;-67
2022/06/12 13:37:12;;;;;;;2.62;1.25;;;;;;;44.48;17.31;100455.91;5531735;32;33949;-69
2022/06/12 13:40:30;;;;;;;1.98;1.27;;;;;;;43.50;17.38;100460.53;5531420;32;33952;-69
2022/06/12 13:43:42;;;;;;;1.60;1.20;;;;;;;37.95;22.80;100451.25;5531890;32;34546;-69
2022/06/12 13:46:45;;;;;;;3.65;1.50;;;;;;;35.95;25.56;100441.81;5531472;32;34040;-66
2022/06/12 13:49:51;;;;;;;3.83;1.30;;;;;;;38.64;22.75;100444.56;5531451;32;34026;-68
2022/06/12 13:53:04;;;;;;;2.03;1.27;;;;;;;37.53;23.61;100441.56;5530562;32;33787;-68
2022/06/12 13:56:13;;;;;;;1.75;1.35;;;;;;;36.33;25.19;100446.44;5531458;32;34044;-68
2022/06/12 13:59:19;;;;;;;3.17;1.42;;;;;;;36.21;25.84;100440.84;5531531;32;34727;-68
2022/06/12 14:02:40;;;;;;;3.28;1.60;;;;;;;36.97;24.86;100432.97;5530380;32;34034;-68
2022/06/12 14:05:50;;;;;;;3.37;1.52;;;;;;;39.60;21.50;100433.19;5530479;32;32535;-68
2022/06/12 14:09:04;;;;;;;1.70;1.30;;;;;;;42.06;19.67;100444.63;5530432;32;34015;-68
2022/06/12 14:12:13;;;;;;;1.50;1.30;;;;;;;40.55;19.87;100440.03;5530932;32;34198;-68
2022/06/12 14:15:32;;;;;;;4.03;1.50;;;;;;;41.19;19.85;100434.53;5531265;32;33952;-68
2022/06/12 14:18:35;;;;;;;4.10;1.60;;;;;;;36.58;25.33;100431.56;5531233;32;34449;-69
2022/06/12 14:21:41;;;;;;;3.83;1.45;;;;;;;33.55;28.97;100421.78;5531281;32;35245;-68
2022/06/12 14:25:00;;;;;;;3.70;1.40;;;;;;;32.01;31.36;100429.00;5530992;32;34181;-67
2022/06/12 14:28:25;;;;;;;5.32;1.60;;;;;;;30.51;33.95;100416.78;5530772;32;33593;-68
2022/06/12 14:31:33;;;;;;;2.00;1.55;;;;;;;30.17;35.49;100418.94;5530786;32;34196;-67
2022/06/12 14:34:38;;;;;;;7.62;1.70;;;;;;;31.51;32.49;100420.72;5530809;32;34604;-68
2022/06/12 14:37:44;;;;;;;2.65;1.30;;;;;;;35.31;27.66;100421.88;5531233;32;33959;-68
2022/06/12 14:40:49;;;;;;;3.80;1.40;;;;;;;38.03;23.30;100419.03;5530820;32;34030;-67
2022/06/12 14:43:54;;;;;;;1.62;1.50;;;;;;;35.55;25.83;100419.31;5530938;32;34492;-68
2022/06/12 14:47:26;;;;;;;2.12;1.62;;;;;;;33.17;29.93;100415.97;5530500;32;34650;-69
2022/06/12 14:50:28;;;;;;;2.78;1.50;;;;;;;32.09;32.14;100409.06;5530744;32;33977;-68
2022/06/12 14:53:31;;;;;;;2.50;1.48;;;;;;;33.76;29.11;100413.75;5529887;32;33896;-68
2022/06/12 14:56:34;;;;;;;1.62;1.42;;;;;;;38.34;23.02;100416.41;5529567;32;34569;-68
2022/06/12 14:59:37;;;;;;;1.95;1.30;;;;;;;41.57;19.47;100414.06;5529754;32;33310;-67
2022/06/12 15:02:40;;;;;;;2.35;1.30;;;;;;;41.20;19.68;100407.50;5530469;32;32893;-67
2022/06/12 15:05:43;;;;;;;1.80;1.27;;;;;;;40.65;19.88;100411.66;5530169;32;34031;-67